Time;durP1;ratioP1;P1;durP2;ratioP2;P2;SDS_P1;SDS_P2;PMS_P1;PMS_P2;Temp;Humidity;BMP_temperature;BMP_pressure;BME280_temperature;BME280_humidity;BME280_pressure;Samples;Min_cycle;Max_cycle;Signal;HPM_P1;HPM_P2
2022/06/01 00:01:28;;;;;;;2.25;2.08;;;;;;;9.80;81.82;100882.69;5096541;28;20042;-83
2022/06/01 00:03:53;;;;;;;2.95;1.95;;;;;;;9.80;81.28;100882.69;5096557;28;20020;-83
2022/06/01 00:06:19;;;;;;;2.00;1.90;;;;;;;9.78;81.52;100885.31;5113422;28;20483;-83
2022/06/01 00:08:44;;;;;;;2.63;1.63;;;;;;;9.78;81.60;100887.06;5096426;28;20031;-83
2022/06/01 00:11:10;;;;;;;1.88;1.77;;;;;;;9.78;80.50;100887.06;5113824;28;20023;-83
2022/06/01 00:13:36;;;;;;;1.70;1.60;;;;;;;9.76;81.25;100888.81;5096816;28;20020;-83
2022/06/01 00:16:02;;;;;;;2.95;2.28;;;;;;;9.74;81.52;100887.97;5096681;28;20113;-83
2022/06/01 00:18:27;;;;;;;1.83;1.73;;;;;;;9.73;82.08;100891.47;5096966;28;20479;-83
2022/06/01 00:20:53;;;;;;;1.90;1.80;;;;;;;9.71;81.83;100888.88;5096507;28;20066;-83
2022/06/01 00:23:19;;;;;;;2.47;2.28;;;;;;;9.69;81.70;100888.00;5096473;28;20026;-83
2022/06/01 00:25:45;;;;;;;2.00;1.90;;;;;;;9.69;82.04;100884.53;5096088;28;20030;-82
2022/06/01 00:28:10;;;;;;;2.15;1.90;;;;;;;9.66;81.98;100876.75;5095972;28;20028;-83
2022/06/01 00:30:36;;;;;;;2.00;1.90;;;;;;;9.67;81.81;100875.84;5096229;28;20024;-82
2022/06/01 00:33:02;;;;;;;1.90;1.75;;;;;;;9.66;81.76;100880.22;5096160;28;20117;-83
2022/06/01 00:35:27;;;;;;;2.30;2.20;;;;;;;9.66;81.70;100884.56;5096435;28;20023;-83
2022/06/01 00:37:53;;;;;;;2.33;2.00;;;;;;;9.63;81.92;100878.50;5096016;28;20072;-83
2022/06/01 00:40:21;;;;;;;2.55;2.35;;;;;;;9.62;82.28;100874.16;5095959;28;20024;-83
2022/06/01 00:42:49;;;;;;;2.35;2.25;;;;;;;9.61;82.02;100880.28;5112884;28;20084;-83
2022/06/01 00:45:18;;;;;;;3.00;2.70;;;;;;;9.62;82.11;100878.50;5095951;28;20020;-83
2022/06/01 00:47:44;;;;;;;2.83;2.63;;;;;;;9.61;82.80;100872.44;5095922;28;20020;-83
2022/06/01 00:50:25;;;;;;;2.38;2.28;;;;;;;9.61;82.75;100866.34;5096126;28;20022;-83
2022/06/01 00:52:58;;;;;;;2.60;2.40;;;;;;;9.60;82.34;100873.31;5094912;28;20029;-83
2022/06/01 00:55:29;;;;;;;2.25;2.15;;;;;;;9.60;82.52;100869.84;5095953;28;20061;-83
2022/06/01 00:58:04;;;;;;;3.50;2.53;;;;;;;9.60;82.62;100867.25;5095921;28;20024;-83
2022/06/01 01:00:32;;;;;;;3.00;2.70;;;;;;;9.60;82.77;100867.25;5095952;28;20108;-83
2022/06/01 01:03:00;;;;;;;2.35;2.25;;;;;;;9.60;82.77;100870.72;5096077;28;20031;-83
2022/06/01 01:05:27;;;;;;;2.30;2.17;;;;;;;9.60;83.36;100864.63;5095705;28;20065;-83
2022/06/01 01:07:53;;;;;;;3.25;2.72;;;;;;;9.60;83.42;100860.28;5096003;28;20035;-83
2022/06/01 01:10:19;;;;;;;2.67;2.47;;;;;;;9.61;83.56;100854.19;5095605;28;20019;-83
2022/06/01 01:12:58;;;;;;;2.88;2.67;;;;;;;9.62;83.61;100855.03;5095637;28;20030;-83
2022/06/01 01:15:58;;;;;;;2.70;2.50;;;;;;;9.60;83.19;100855.06;5097451;28;20381;-83
2022/06/01 01:18:30;;;;;;;2.70;2.50;;;;;;;9.60;82.97;100844.63;5089916;28;20038;-83
2022/06/01 01:21:07;;;;;;;2.53;2.33;;;;;;;9.61;83.29;100850.69;5095457;28;20015;-83
2022/06/01 01:23:42;;;;;;;2.63;2.53;;;;;;;9.59;83.00;100847.25;5113050;28;20028;-83
2022/06/01 01:26:07;;;;;;;2.10;2.00;;;;;;;9.56;82.71;100848.16;5113591;28;20024;-83
2022/06/01 01:28:33;;;;;;;2.80;2.38;;;;;;;9.54;82.22;100849.88;5095424;28;20424;-83
2022/06/01 01:31:12;;;;;;;2.30;2.20;;;;;;;9.51;81.57;100842.09;5095302;28;20384;-83
2022/06/01 01:33:38;;;;;;;2.80;2.70;;;;;;;9.48;81.77;100842.13;5095149;28;20027;-83
2022/06/01 01:36:06;;;;;;;2.47;2.38;;;;;;;9.44;82.53;100843.03;5095315;28;20047;-83
2022/06/01 01:38:44;;;;;;;2.47;2.38;;;;;;;9.41;83.44;100840.47;5095463;28;20028;-83
2022/06/01 01:41:18;;;;;;;2.30;2.20;;;;;;;9.39;83.27;100834.41;5111982;28;20442;-83
2022/06/01 01:43:51;;;;;;;2.80;2.60;;;;;;;9.38;82.38;100833.53;5095153;28;20094;-83
2022/06/01 01:46:17;;;;;;;2.35;2.20;;;;;;;9.38;82.23;100840.47;5095058;28;20075;-83
2022/06/01 01:48:42;;;;;;;2.75;2.55;;;;;;;9.34;82.47;100839.66;5094810;28;20027;-83
2022/06/01 01:51:08;;;;;;;2.60;2.40;;;;;;;9.33;83.33;100839.69;5094833;28;20088;-83
2022/06/01 01:53:34;;;;;;;2.90;2.70;;;;;;;9.30;82.68;100830.13;5094881;28;20073;-83
2022/06/01 01:56:21;;;;;;;2.92;2.72;;;;;;;9.30;82.56;100835.34;5095099;28;20023;-83
2022/06/01 01:59:11;;;;;;;2.75;2.30;;;;;;;9.27;82.96;100835.34;5111720;28;20019;-83
2022/06/01 02:01:55;;;;;;;2.20;2.10;;;;;;;9.24;82.95;100841.50;5094936;28;20024;-83
2022/06/01 02:07:19;;;;;;;2.30;2.20;;;;;;;9.22;82.90;100839.78;5112010;28;20039;-83
2022/06/01 02:12:42;;;;;;;2.90;2.70;;;;;;;9.17;82.75;100834.56;5112836;28;20396;-83
2022/06/01 02:15:11;;;;;;;2.47;2.28;;;;;;;9.14;82.86;100832.84;5096314;28;20165;-83
2022/06/01 02:17:49;;;;;;;2.83;2.63;;;;;;;9.13;82.75;100830.25;5094737;28;20392;-83
2022/06/01 02:20:36;;;;;;;2.22;2.13;;;;;;;9.12;82.66;100834.63;5094956;28;20487;-83
2022/06/01 02:23:02;;;;;;;2.28;2.15;;;;;;;9.10;82.62;100833.75;5094649;28;20114;-83
2022/06/01 02:25:29;;;;;;;2.67;2.58;;;;;;;9.10;82.55;100832.91;5094416;28;20027;-83
2022/06/01 02:27:57;;;;;;;2.53;2.33;;;;;;;9.08;82.54;100837.25;5094977;28;20028;-83
2022/06/01 02:30:33;;;;;;;2.40;2.30;;;;;;;9.05;82.98;100826.84;5094582;28;20418;-83
2022/06/01 02:32:59;;;;;;;2.70;2.53;;;;;;;9.05;82.23;100829.47;5094757;28;20165;-83
2022/06/01 02:35:24;;;;;;;2.63;2.42;;;;;;;9.04;83.01;100823.41;5094445;28;20020;-83
2022/06/01 02:37:53;;;;;;;2.15;2.05;;;;;;;9.04;83.76;100823.41;5094262;28;20031;-83
2022/06/01 02:40:20;;;;;;;3.08;2.70;;;;;;;9.04;84.36;100822.50;5094350;28;20028;-83
2022/06/01 02:42:49;;;;;;;2.72;2.63;;;;;;;9.06;84.04;100823.38;5111644;28;20024;-83
2022/06/01 02:45:14;;;;;;;2.75;2.60;;;;;;;9.05;84.10;100816.44;5094612;28;20020;-83
2022/06/01 02:47:45;;;;;;;2.63;2.38;;;;;;;9.05;83.65;100813.81;5094456;28;20024;-83
2022/06/01 02:50:22;;;;;;;2.60;2.40;;;;;;;9.05;84.10;100825.13;5094528;28;20442;-83
2022/06/01 02:52:48;;;;;;;3.28;2.75;;;;;;;9.05;84.06;100819.03;5094412;28;20486;-83
2022/06/01 02:55:15;;;;;;;2.70;2.50;;;;;;;9.05;84.03;100819.94;5094251;28;20106;-83
2022/06/01 02:57:42;;;;;;;3.08;2.78;;;;;;;9.04;83.88;100818.19;5094507;28;20118;-83
2022/06/01 03:00:29;;;;;;;2.92;2.70;;;;;;;9.03;84.09;100818.19;5094814;28;20031;-83
2022/06/01 03:02:57;;;;;;;2.63;2.42;;;;;;;9.03;83.84;100819.06;5110950;28;20126;-83
2022/06/01 03:05:26;;;;;;;2.65;2.55;;;;;;;9.03;83.52;100815.59;5094115;28;20504;-83
2022/06/01 03:07:52;;;;;;;2.65;2.30;;;;;;;9.03;84.14;100815.59;5094037;28;20024;-83
2022/06/01 03:10:18;;;;;;;3.05;2.85;;;;;;;9.01;84.16;100817.34;5094352;28;20015;-83
2022/06/01 03:12:43;;;;;;;2.53;2.42;;;;;;;9.02;84.69;100809.50;5094137;28;20070;-83
2022/06/01 03:15:11;;;;;;;2.65;2.47;;;;;;;9.03;84.62;100815.59;5112911;28;20388;-83
2022/06/01 03:17:36;;;;;;;2.58;2.47;;;;;;;9.04;84.42;100812.09;5098147;28;20110;-83
2022/06/01 03:20:07;;;;;;;2.60;2.50;;;;;;;9.04;84.75;100806.88;5097903;28;20455;-83
2022/06/01 03:22:36;;;;;;;2.65;2.53;;;;;;;9.04;84.85;100807.75;5098433;28;20115;-83
2022/06/01 03:25:04;;;;;;;2.55;2.38;;;;;;;9.05;84.39;100803.41;5097631;28;20031;-83
2022/06/01 03:27:29;;;;;;;2.72;2.53;;;;;;;9.06;84.40;100802.53;5097506;28;20463;-83
2022/06/01 03:29:54;;;;;;;2.63;2.40;;;;;;;9.07;85.21;100804.28;5097567;28;20123;-83
2022/06/01 03:32:21;;;;;;;2.75;2.47;;;;;;;9.08;84.52;100803.38;5097935;28;20472;-83
2022/06/01 03:34:46;;;;;;;2.35;2.20;;;;;;;9.10;85.32;100801.63;5097503;28;20114;-83
2022/06/01 03:37:12;;;;;;;2.92;2.70;;;;;;;9.13;84.74;100799.00;5097347;28;20112;-83
2022/06/01 03:39:37;;;;;;;2.80;2.60;;;;;;;9.14;85.12;100792.91;5097481;28;20046;-83
2022/06/01 03:42:03;;;;;;;3.05;2.85;;;;;;;9.18;85.14;100794.63;5097188;28;20024;-83
2022/06/01 03:47:12;;;;;;;2.45;2.35;;;;;;;9.24;85.61;100805.00;5114666;28;20565;-83
2022/06/01 03:49:38;;;;;;;3.30;2.67;;;;;;;9.29;85.73;100799.72;5097736;28;20024;-83
2022/06/01 03:52:05;;;;;;;2.30;2.20;;;;;;;9.34;85.95;100807.50;5097119;28;20076;-83
2022/06/01 03:54:30;;;;;;;3.22;3.03;;;;;;;9.39;85.51;100805.72;5097290;28;20480;-83
2022/06/01 03:56:56;;;;;;;3.13;2.83;;;;;;;9.42;85.78;100803.06;5097315;28;20016;-83
2022/06/01 03:59:21;;;;;;;5.03;2.75;;;;;;;9.49;85.85;100812.59;5096958;28;20088;-83
2022/06/01 04:01:47;;;;;;;3.80;2.92;;;;;;;9.53;86.16;100811.66;5097111;28;20028;-83
2022/06/01 04:04:12;;;;;;;3.40;3.10;;;;;;;9.59;86.04;100810.75;5097134;28;20076;-83
2022/06/01 04:06:37;;;;;;;3.25;3.00;;;;;;;9.64;85.63;100812.41;5097001;28;20015;-83
2022/06/01 04:09:03;;;;;;;4.75;3.47;;;;;;;9.69;85.54;100806.28;5097098;28;20122;-83
2022/06/01 04:11:28;;;;;;;3.47;3.17;;;;;;;9.72;85.70;100801.91;5096813;28;20045;-83
2022/06/01 04:13:54;;;;;;;3.63;3.33;;;;;;;9.76;86.16;100802.72;5096835;28;20024;-83
2022/06/01 04:16:19;;;;;;;4.15;3.38;;;;;;;9.82;86.40;100813.09;5096916;28;20431;-83
2022/06/01 04:18:45;;;;;;;3.40;3.10;;;;;;;9.85;86.51;100807.00;5096915;28;20080;-83
2022/06/01 04:21:11;;;;;;;4.05;3.10;;;;;;;9.89;86.32;100808.69;5097791;28;20122;-79
2022/06/01 04:23:37;;;;;;;3.55;3.05;;;;;;;9.92;86.09;100806.88;5097738;28;20055;-79
2022/06/01 04:26:02;;;;;;;3.80;3.42;;;;;;;9.96;86.49;100805.97;5097263;28;20028;-79
2022/06/01 04:28:28;;;;;;;3.65;3.25;;;;;;;10.00;86.43;100812.03;5096986;28;20392;-80
2022/06/01 04:30:53;;;;;;;4.05;3.75;;;;;;;10.06;86.45;100818.91;5096969;28;20055;-80
2022/06/01 04:33:19;;;;;;;4.28;3.88;;;;;;;10.08;85.99;100820.63;5097423;28;20024;-80
2022/06/01 04:35:44;;;;;;;3.78;3.47;;;;;;;10.10;86.39;100825.81;5097276;28;20051;-80
2022/06/01 04:38:12;;;;;;;4.03;3.28;;;;;;;10.13;86.11;100833.63;5097525;28;20027;-80
2022/06/01 04:40:45;;;;;;;5.20;3.13;;;;;;;10.15;86.45;100837.06;5097628;28;20455;-80
2022/06/01 04:43:15;;;;;;;3.85;3.10;;;;;;;10.17;86.47;100842.28;5114353;28;20472;-80
2022/06/01 04:45:41;;;;;;;2.95;2.75;;;;;;;10.19;86.88;100858.78;5097031;28;20472;-81
2022/06/01 04:48:07;;;;;;;2.90;2.72;;;;;;;10.21;86.97;100854.41;5113510;28;20085;-80
2022/06/01 04:50:33;;;;;;;3.33;2.47;;;;;;;10.21;86.71;100849.19;5096685;28;20046;-80
2022/06/01 04:52:59;;;;;;;3.20;3.00;;;;;;;10.22;87.07;100854.38;5097953;28;20492;-80
2022/06/01 04:55:25;;;;;;;3.35;3.10;;;;;;;10.23;87.24;100852.66;5097659;28;20062;-80
2022/06/01 04:57:50;;;;;;;2.90;2.70;;;;;;;10.22;86.75;100858.75;5095747;28;20476;-80
2022/06/01 05:00:16;;;;;;;3.22;3.03;;;;;;;10.21;86.44;100867.44;5095696;28;20024;-80
2022/06/01 05:02:42;;;;;;;3.10;2.80;;;;;;;10.20;86.29;100865.72;5095774;28;20028;-80
2022/06/01 05:05:08;;;;;;;3.10;2.92;;;;;;;10.19;86.53;100869.22;5095688;28;20072;-80
2022/06/01 05:07:34;;;;;;;3.05;2.85;;;;;;;10.17;86.87;100866.66;5095625;28;20027;-80
2022/06/01 05:09:59;;;;;;;3.15;2.78;;;;;;;10.17;86.67;100873.59;5112460;28;20038;-80
2022/06/01 05:12:24;;;;;;;3.30;3.10;;;;;;;10.15;86.05;100876.22;5095614;28;20043;-80
2022/06/01 05:14:50;;;;;;;3.40;3.10;;;;;;;10.13;86.96;100873.63;5095511;28;20063;-80
2022/06/01 05:17:15;;;;;;;3.33;3.13;;;;;;;10.11;86.94;100882.38;5095491;28;20427;-80
2022/06/01 05:19:41;;;;;;;3.20;3.00;;;;;;;10.09;85.60;100884.13;5095137;28;20024;-82
2022/06/01 05:22:06;;;;;;;3.42;3.22;;;;;;;10.06;85.24;100881.53;5112554;28;20448;-82
2022/06/01 05:24:31;;;;;;;3.60;3.40;;;;;;;10.06;85.98;100882.44;5125002;22;20042;-81
2022/06/01 05:26:57;;;;;;;3.92;3.70;;;;;;;10.06;86.23;100884.16;5038539;28;20226;-81
2022/06/01 05:29:22;;;;;;;4.15;3.80;;;;;;;10.07;86.64;100885.91;5037989;28;20032;-80
2022/06/01 05:31:49;;;;;;;4.43;4.13;;;;;;;10.09;86.75;100890.22;5024852;28;20021;-82
2022/06/01 05:34:14;;;;;;;5.10;4.80;;;;;;;10.08;86.74;100893.69;5020527;28;20025;-81
2022/06/01 05:36:40;;;;;;;5.55;5.25;;;;;;;10.08;86.65;100893.69;5020438;28;20025;-79
2022/06/01 05:39:05;;;;;;;6.55;6.05;;;;;;;10.04;86.74;100898.97;5020751;28;20025;-80
2022/06/01 05:41:30;;;;;;;7.53;6.93;;;;;;;9.98;87.00;100899.91;5019758;28;20083;-80
2022/06/01 05:43:56;;;;;;;8.63;7.15;;;;;;;9.91;87.37;100899.13;5021096;28;20470;-80
2022/06/01 05:46:22;;;;;;;8.48;7.88;;;;;;;9.84;87.92;100900.03;5020334;28;20021;-81
2022/06/01 05:48:48;;;;;;;9.07;8.38;;;;;;;9.77;89.35;100906.19;5020422;28;20033;-81
2022/06/01 05:51:13;;;;;;;9.25;8.55;;;;;;;9.69;90.43;100900.19;5020146;28;20029;-80
2022/06/01 05:53:39;;;;;;;9.95;9.25;;;;;;;9.62;91.14;100899.38;5021486;28;20029;-81
2022/06/01 05:56:04;;;;;;;10.90;9.95;;;;;;;9.58;92.43;100903.75;5020628;28;20080;-81
2022/06/01 05:58:30;;;;;;;9.65;9.05;;;;;;;9.55;92.98;100914.22;5037186;28;20032;-81
2022/06/01 06:00:59;;;;;;;10.30;9.50;;;;;;;9.51;93.51;100917.72;5019503;28;20028;-81
2022/06/01 06:03:25;;;;;;;10.20;9.40;;;;;;;9.48;94.55;100912.53;5017874;28;20025;-83
2022/06/01 06:08:35;;;;;;;10.25;9.35;;;;;;;9.44;95.18;100918.66;5037376;28;20032;-83
2022/06/01 06:11:00;;;;;;;10.65;9.65;;;;;;;9.43;95.70;100909.94;5018273;28;20410;-84
2022/06/01 06:13:26;;;;;;;9.98;9.18;;;;;;;9.40;96.21;100914.34;5018590;28;20482;-83
2022/06/01 06:15:51;;;;;;;10.30;9.30;;;;;;;9.39;96.20;100918.69;5034807;28;20021;-84
2022/06/01 06:18:16;;;;;;;10.55;9.70;;;;;;;9.38;96.90;100919.56;5034416;28;20098;-84
2022/06/01 06:20:43;;;;;;;9.52;8.73;;;;;;;9.40;96.87;100916.97;5018197;28;20043;-84
2022/06/01 06:23:10;;;;;;;10.60;9.00;;;;;;;9.39;96.86;100907.41;5018029;28;20115;-83
2022/06/01 06:25:35;;;;;;;10.48;9.48;;;;;;;9.37;97.78;100904.81;5017967;28;20494;-89
2022/06/01 06:28:01;;;;;;;10.25;9.40;;;;;;;9.35;97.84;100908.28;5017871;28;20079;-88
2022/06/01 06:30:26;;;;;;;10.43;9.63;;;;;;;9.35;98.16;100911.75;5034546;28;20025;-88
2022/06/01 06:32:52;;;;;;;11.15;10.10;;;;;;;9.35;98.24;100896.13;5018138;28;20021;-87
2022/06/01 06:35:17;;;;;;;11.25;10.23;;;;;;;9.35;98.77;100905.69;5018078;28;20047;-87
2022/06/01 06:37:43;;;;;;;11.20;10.30;;;;;;;9.31;98.87;100886.59;5018008;28;20032;-87
2022/06/01 06:40:10;;;;;;;11.27;10.48;;;;;;;9.30;99.07;100862.28;5034307;28;20025;-87
2022/06/01 06:42:35;;;;;;;11.20;10.30;;;;;;;9.28;98.56;100863.16;5017899;28;20036;-86
2022/06/01 06:45:03;;;;;;;11.13;10.30;;;;;;;9.26;99.11;100862.31;5017691;28;20041;-86
2022/06/01 06:47:32;;;;;;;11.57;10.57;;;;;;;9.24;99.25;100851.91;5020373;28;20025;-84
2022/06/01 06:49:58;;;;;;;12.27;11.13;;;;;;;9.26;99.49;100854.50;5019455;28;20079;-83
2022/06/01 06:52:23;;;;;;;11.20;10.15;;;;;;;9.27;99.43;100856.22;5021802;28;20478;-82
2022/06/01 06:54:49;;;;;;;9.73;9.02;;;;;;;9.30;99.46;100857.06;5021896;28;20025;-83
2022/06/01 06:57:14;;;;;;;10.98;10.15;;;;;;;9.36;100.00;100866.56;5021649;28;20071;-83
2022/06/01 06:59:40;;;;;;;9.40;8.70;;;;;;;9.43;100.00;100867.38;5021841;28;20083;-84
2022/06/01 07:02:05;;;;;;;9.45;8.75;;;;;;;9.46;100.00;100863.03;5022028;28;20433;-81
2022/06/01 07:04:31;;;;;;;10.00;9.25;;;;;;;9.52;100.00;100875.13;5022217;28;20033;-81
2022/06/01 07:06:56;;;;;;;9.80;9.15;;;;;;;9.56;100.00;100868.16;5022108;28;20025;-81
2022/06/01 07:09:22;;;;;;;10.70;9.45;;;;;;;9.60;100.00;100875.94;5022131;28;20525;-82
2022/06/01 07:11:47;;;;;;;10.15;9.38;;;;;;;9.67;100.00;100875.84;5021955;28;20021;-83
2022/06/01 07:14:12;;;;;;;9.73;8.90;;;;;;;9.69;99.65;100874.97;5029841;28;20020;-86
2022/06/01 07:16:38;;;;;;;10.23;9.40;;;;;;;9.72;99.76;100874.94;5021369;28;20013;-84
2022/06/01 07:19:05;;;;;;;10.93;10.05;;;;;;;9.75;99.90;100887.09;5022246;28;20034;-84
2022/06/01 07:21:31;;;;;;;11.02;9.98;;;;;;;9.77;99.76;100882.72;5021794;28;20375;-85
2022/06/01 07:23:57;;;;;;;10.80;9.80;;;;;;;9.76;99.84;100892.31;5021426;28;20453;-84
2022/06/01 07:26:29;;;;;;;9.85;9.07;;;;;;;9.76;100.00;100884.47;5020062;28;20108;-84
2022/06/01 07:28:54;;;;;;;9.30;8.50;;;;;;;9.79;100.00;100891.41;5021165;28;20052;-84
2022/06/01 07:31:20;;;;;;;9.65;8.95;;;;;;;9.79;99.72;100891.41;5020626;28;20094;-85
2022/06/01 07:33:46;;;;;;;9.20;8.52;;;;;;;9.81;100.00;100902.69;5020514;28;20064;-85
2022/06/01 07:36:14;;;;;;;9.15;8.45;;;;;;;9.80;99.70;100901.81;5023001;28;20032;-84
2022/06/01 07:44:22;;;;;;;10.27;9.25;;;;;;;9.79;100.00;100904.44;5039917;28;20036;-84
2022/06/01 07:46:47;;;;;;;10.40;9.02;;;;;;;9.84;100.00;100907.00;5032991;28;20028;-84
2022/06/01 07:49:13;;;;;;;9.93;8.98;;;;;;;9.84;100.00;100909.63;5040440;28;20024;-82
2022/06/01 07:51:39;;;;;;;8.57;7.95;;;;;;;9.85;100.00;100914.81;5040059;28;20029;-84
2022/06/01 07:54:06;;;;;;;9.10;8.23;;;;;;;9.88;100.00;100906.09;5039882;28;20029;-85
2022/06/01 07:56:32;;;;;;;8.05;7.55;;;;;;;9.90;100.00;100900.00;5039548;28;20203;-84
2022/06/01 07:58:58;;;;;;;8.35;7.70;;;;;;;9.97;100.00;100898.19;5039917;28;20024;-85
2022/06/01 08:01:26;;;;;;;8.07;7.50;;;;;;;10.02;100.00;100893.78;5040476;28;20451;-84
2022/06/01 08:03:53;;;;;;;8.98;8.38;;;;;;;10.07;100.00;100898.94;5039972;28;20090;-84
2022/06/01 08:06:18;;;;;;;8.07;7.47;;;;;;;10.11;100.00;100892.81;5039709;28;20035;-84
2022/06/01 08:08:44;;;;;;;7.70;7.10;;;;;;;10.17;100.00;100891.88;5039641;28;20111;-84
2022/06/01 08:11:10;;;;;;;7.95;7.35;;;;;;;10.22;100.00;100901.38;5039745;28;20031;-85
2022/06/01 08:13:36;;;;;;;9.20;8.60;;;;;;;10.28;100.00;100895.22;5039588;28;20024;-84
2022/06/01 08:16:03;;;;;;;9.52;8.52;;;;;;;10.31;100.00;100898.66;5031360;28;20386;-85
2022/06/01 08:18:29;;;;;;;8.63;8.02;;;;;;;10.36;100.00;100908.22;5037898;28;20024;-83
2022/06/01 08:20:54;;;;;;;8.57;7.82;;;;;;;10.34;100.00;100916.03;5041370;28;20492;-82
2022/06/01 08:23:22;;;;;;;7.90;7.40;;;;;;;10.30;99.69;100915.19;5041589;28;20378;-82
2022/06/01 08:25:47;;;;;;;7.90;7.45;;;;;;;10.31;99.38;100914.31;5041759;28;20399;-83
2022/06/01 08:28:12;;;;;;;7.68;7.18;;;;;;;10.37;99.66;100925.63;5041627;28;20028;-82
2022/06/01 08:30:39;;;;;;;7.10;6.78;;;;;;;10.38;99.53;100917.75;5041388;28;20029;-83
2022/06/01 08:33:05;;;;;;;6.88;6.47;;;;;;;10.37;99.61;100918.63;5041800;28;20571;-83
2022/06/01 08:35:34;;;;;;;6.32;5.85;;;;;;;10.40;99.36;100920.34;5040727;28;20032;-83
2022/06/01 08:37:59;;;;;;;7.15;6.65;;;;;;;10.40;99.06;100922.97;5040205;28;20532;-82
2022/06/01 08:40:34;;;;;;;7.20;6.60;;;;;;;10.42;99.82;100926.44;5040137;28;20025;-82
2022/06/01 08:43:12;;;;;;;6.45;6.05;;;;;;;10.44;99.32;100924.66;5040206;28;20040;-84
2022/06/01 08:45:38;;;;;;;7.22;6.72;;;;;;;10.47;99.11;100914.16;5039814;28;20021;-85
2022/06/01 08:48:05;;;;;;;6.43;6.00;;;;;;;10.51;99.59;100926.31;5039838;28;20033;-85
2022/06/01 08:50:34;;;;;;;5.68;5.38;;;;;;;10.52;100.00;100914.97;5039106;28;20020;-85
2022/06/01 08:53:03;;;;;;;5.43;5.03;;;;;;;10.57;99.98;100912.31;5039224;28;20157;-84
2022/06/01 08:55:35;;;;;;;5.25;4.95;;;;;;;10.60;99.40;100912.28;5039316;28;20070;-85
2022/06/01 08:58:07;;;;;;;5.72;5.32;;;;;;;10.65;98.23;100913.94;5055680;28;20356;-85
2022/06/01 09:00:36;;;;;;;5.75;5.43;;;;;;;10.72;98.80;100917.34;5038676;28;20559;-84
2022/06/01 09:03:09;;;;;;;5.50;5.13;;;;;;;10.79;98.24;100913.75;5038996;28;20035;-84
2022/06/01 09:05:43;;;;;;;5.30;5.00;;;;;;;10.88;96.90;100918.00;5039061;28;20027;-84
2022/06/01 09:08:21;;;;;;;4.60;4.40;;;;;;;10.93;95.23;100916.16;5039222;28;20174;-84
2022/06/01 09:10:53;;;;;;;2.97;2.88;;;;;;;11.03;95.39;100910.81;5055751;28;20187;-83
2022/06/01 09:13:25;;;;;;;3.95;3.75;;;;;;;11.09;94.78;100918.59;5038776;28;20031;-84
2022/06/01 09:16:00;;;;;;;4.15;3.92;;;;;;;11.20;94.96;100919.28;5039360;28;20047;-84
2022/06/01 09:18:29;;;;;;;3.97;3.67;;;;;;;11.22;94.46;100922.75;5073529;28;20048;-85
2022/06/01 09:23:40;;;;;;;2.90;2.80;;;;;;;11.22;92.98;100934.94;5058051;28;20031;-84
2022/06/01 09:26:06;;;;;;;3.00;2.90;;;;;;;11.23;92.93;100937.53;5038667;28;20032;-85
2022/06/01 09:28:38;;;;;;;3.22;3.03;;;;;;;11.25;93.50;100938.38;5038991;28;20086;-84
2022/06/01 09:31:35;;;;;;;2.72;2.63;;;;;;;11.27;93.28;100941.81;5038760;28;20386;-84
2022/06/01 09:34:23;;;;;;;3.50;3.20;;;;;;;11.34;94.25;100939.97;5037528;28;20417;-84
2022/06/01 09:37:12;;;;;;;3.17;3.08;;;;;;;11.37;92.76;100936.44;5038346;28;20058;-83
2022/06/01 09:39:48;;;;;;;3.20;3.00;;;;;;;11.37;92.64;100941.69;5040417;28;20393;-83
2022/06/01 09:42:15;;;;;;;3.70;3.50;;;;;;;11.43;92.40;100941.59;5040523;28;20024;-83
2022/06/01 09:44:44;;;;;;;4.25;3.95;;;;;;;11.50;93.32;100948.47;5041046;28;20024;-83
2022/06/01 09:47:33;;;;;;;3.17;2.88;;;;;;;11.50;93.12;100943.22;5040056;28;20060;-83
2022/06/01 09:49:59;;;;;;;3.42;3.33;;;;;;;11.54;91.07;100939.66;5040958;28;20032;-82
2022/06/01 09:52:40;;;;;;;3.90;3.70;;;;;;;11.57;91.61;100944.00;5040516;28;20032;-82
2022/06/01 09:55:19;;;;;;;4.35;4.15;;;;;;;11.60;92.07;100939.59;5040718;28;20025;-82
2022/06/01 09:58:09;;;;;;;4.63;4.13;;;;;;;11.67;93.41;100937.72;5040503;28;20036;-86
2022/06/01 10:06:18;;;;;;;2.10;2.00;;;;;;;11.91;89.78;100933.81;5059600;28;20071;-82
2022/06/01 10:08:58;;;;;;;2.40;2.30;;;;;;;11.92;86.19;100927.69;5057200;28;20024;-86
2022/06/01 10:11:51;;;;;;;1.75;1.65;;;;;;;11.97;86.75;100928.50;5056120;28;20025;-84
2022/06/01 10:14:22;;;;;;;2.22;2.13;;;;;;;12.03;86.58;100921.44;5037389;28;20503;-82
2022/06/01 10:17:08;;;;;;;2.55;2.45;;;;;;;12.05;86.99;100923.09;5057124;28;20461;-82
2022/06/01 10:19:47;;;;;;;2.22;2.13;;;;;;;12.11;87.87;100930.84;5041537;28;20024;-81
2022/06/01 10:22:31;;;;;;;2.25;1.85;;;;;;;12.13;85.69;100923.84;5036348;28;20013;-82
2022/06/01 10:24:57;;;;;;;1.67;1.57;;;;;;;12.15;82.74;100927.28;5030509;28;20025;-82
2022/06/01 10:27:35;;;;;;;1.90;1.80;;;;;;;12.16;83.00;100933.38;5045348;28;20811;-81
2022/06/01 10:30:11;;;;;;;2.40;2.30;;;;;;;12.16;82.80;100922.91;5025151;28;20029;-81
2022/06/01 10:32:42;;;;;;;2.50;2.30;;;;;;;12.16;83.94;100923.78;5025247;28;20025;-81
2022/06/01 10:35:37;;;;;;;2.40;2.30;;;;;;;12.17;82.31;100924.63;5024760;28;20291;-83
2022/06/01 10:38:15;;;;;;;2.47;2.35;;;;;;;12.23;83.53;100923.66;5026724;28;20051;-81
2022/06/01 10:40:55;;;;;;;3.67;3.47;;;;;;;12.26;81.43;100924.47;5041155;28;20037;-81
2022/06/01 10:43:31;;;;;;;2.70;2.50;;;;;;;12.28;78.47;100922.66;5025202;28;20035;-82
2022/06/01 10:46:31;;;;;;;3.42;3.22;;;;;;;12.28;79.60;100913.94;5025079;28;20043;-81
2022/06/01 10:49:34;;;;;;;4.90;4.60;;;;;;;12.33;81.38;100923.44;5041449;28;20107;-82
2022/06/01 10:52:11;;;;;;;3.67;3.38;;;;;;;12.40;81.55;100921.56;5040583;28;20505;-83
2022/06/01 10:54:46;;;;;;;5.70;3.72;;;;;;;12.45;80.88;100913.63;5022349;28;20025;-83
2022/06/01 10:57:17;;;;;;;4.18;3.97;;;;;;;12.52;82.10;100915.22;5024283;28;20027;-83
2022/06/01 10:59:43;;;;;;;5.30;5.00;;;;;;;12.56;81.64;100905.53;5023724;28;20098;-83
2022/06/01 11:02:24;;;;;;;5.32;5.03;;;;;;;12.48;80.50;100896.06;5039060;28;20029;-82
2022/06/01 11:05:13;;;;;;;5.38;5.07;;;;;;;12.45;83.04;100897.91;5055873;28;20039;-83
2022/06/01 11:08:16;;;;;;;4.40;4.00;;;;;;;12.46;81.80;100899.63;5023177;28;20532;-83
2022/06/01 11:11:05;;;;;;;5.85;5.55;;;;;;;12.61;81.13;100894.06;5055629;28;20551;-81
2022/06/01 11:13:40;;;;;;;5.85;5.45;;;;;;;12.74;81.17;100885.94;5057869;28;20032;-82
2022/06/01 11:16:47;;;;;;;5.85;5.43;;;;;;;12.87;78.75;100890.00;5056018;28;20444;-83
2022/06/01 11:19:24;;;;;;;5.55;5.20;;;;;;;12.98;79.07;100884.53;5040116;28;20078;-81
2022/06/01 11:22:11;;;;;;;5.93;5.53;;;;;;;13.01;78.13;100889.69;5055676;28;20032;-82
2022/06/01 11:24:48;;;;;;;6.35;5.78;;;;;;;13.05;77.93;100899.22;5053889;28;20017;-81
2022/06/01 11:27:22;;;;;;;5.72;5.43;;;;;;;13.08;77.50;100898.28;5039054;28;20051;-83
2022/06/01 11:30:16;;;;;;;6.30;5.90;;;;;;;13.13;78.46;100894.66;5040069;28;20025;-81
2022/06/01 11:32:44;;;;;;;5.75;5.45;;;;;;;13.20;75.41;100892.75;5075600;28;20024;-82
2022/06/01 11:35:28;;;;;;;5.72;5.43;;;;;;;13.31;76.10;100895.09;5075579;28;20016;-82
2022/06/01 11:38:28;;;;;;;5.88;5.47;;;;;;;13.44;75.58;100895.69;5069366;28;20076;-82
2022/06/01 11:41:12;;;;;;;6.13;5.63;;;;;;;13.56;78.38;100884.88;5045590;28;20061;-84
2022/06/01 11:43:58;;;;;;;6.80;6.28;;;;;;;13.66;74.77;100891.63;5022694;28;20025;-83
2022/06/01 11:46:35;;;;;;;8.32;7.03;;;;;;;13.72;72.76;100885.34;5022373;28;20394;-81
2022/06/01 11:49:10;;;;;;;6.75;6.35;;;;;;;13.68;72.84;100888.97;5022335;28;20032;-82
2022/06/01 11:51:36;;;;;;;7.93;7.38;;;;;;;13.71;73.29;100888.88;5022357;28;20029;-82
2022/06/01 11:54:05;;;;;;;10.95;8.10;;;;;;;13.76;71.80;100888.78;5038777;28;20180;-81
2022/06/01 11:56:33;;;;;;;9.55;8.32;;;;;;;13.71;69.06;100893.28;5038942;28;20032;-81
2022/06/01 11:59:20;;;;;;;9.38;8.57;;;;;;;13.69;68.70;100891.53;5056172;28;20059;-82
2022/06/01 12:01:51;;;;;;;8.75;8.15;;;;;;;13.67;70.73;100892.47;5038500;28;20032;-81
2022/06/01 12:04:35;;;;;;;8.25;7.55;;;;;;;13.74;72.07;100894.03;5038721;28;20120;-81
2022/06/01 12:07:22;;;;;;;8.65;8.13;;;;;;;13.91;71.95;100911.13;5022243;28;20112;-81